createdAt,value
2022-10-22T04:46:58.488Z,99.99
2022-10-22T04:47:58.484Z,99.99
2022-10-22T04:48:58.465Z,99.99
2022-10-22T04:49:58.457Z,99.99
2022-10-22T04:50:58.444Z,99.99
2022-10-22T04:51:58.427Z,99.99
2022-10-22T04:52:58.437Z,99.99
2022-10-22T04:53:58.406Z,99.99
2022-10-22T04:54:58.400Z,99.99
2022-10-22T04:55:58.385Z,99.99
2022-10-22T04:56:58.379Z,99.99
2022-10-22T04:57:58.377Z,99.99
2022-10-22T04:58:58.365Z,99.99
2022-10-22T04:59:58.340Z,99.99
2022-10-22T05:00:58.365Z,99.99
2022-10-22T05:01:58.323Z,99.99
2022-10-22T05:02:58.326Z,99.99
2022-10-22T05:03:58.303Z,99.99
2022-10-22T05:04:58.297Z,99.99
2022-10-22T05:05:58.276Z,99.99
2022-10-22T05:06:58.269Z,99.99
2022-10-22T05:07:58.266Z,99.99
2022-10-22T05:08:58.324Z,99.99
2022-10-22T05:09:58.232Z,99.99
2022-10-22T05:10:58.226Z,99.99
2022-10-22T05:11:58.218Z,99.99
2022-10-22T05:12:58.221Z,99.99
2022-10-22T05:13:58.190Z,99.99
2022-10-22T05:14:58.181Z,99.99
2022-10-22T05:15:58.167Z,99.99
2022-10-22T05:16:58.160Z,99.99
2022-10-22T05:17:58.157Z,99.99
2022-10-22T05:18:58.138Z,99.99
2022-10-22T05:19:58.121Z,99.99
2022-10-22T05:20:58.113Z,99.99
2022-10-22T05:21:58.099Z,99.99
2022-10-22T05:22:58.107Z,99.99
2022-10-22T05:23:58.080Z,99.99
2022-10-22T05:24:58.071Z,99.99
2022-10-22T05:25:58.058Z,99.99
2022-10-22T05:26:58.047Z,99.99
2022-10-22T05:28:00.250Z,99.99
2022-10-22T05:28:58.033Z,99.99
2022-10-22T05:29:58.011Z,99.99
2022-10-22T05:30:58.007Z,99.99
2022-10-22T05:31:57.990Z,99.99
2022-10-22T05:32:57.995Z,99.99
2022-10-22T05:33:57.970Z,99.99
2022-10-22T05:34:57.957Z,99.99
2022-10-22T05:35:57.945Z,99.99
2022-10-22T05:36:57.947Z,99.99
2022-10-22T05:37:57.944Z,99.99
2022-10-22T05:38:57.916Z,99.99
2022-10-22T05:40:06.772Z,99.99
2022-10-22T05:40:57.903Z,99.99
2022-10-22T05:41:57.910Z,99.99
2022-10-22T05:42:57.896Z,99.99
2022-10-22T05:43:57.864Z,99.99
2022-10-22T05:44:57.875Z,99.99
2022-10-22T05:45:57.890Z,99.99
2022-10-22T05:46:57.827Z,99.99
2022-10-22T05:47:57.824Z,99.99
2022-10-22T05:48:57.808Z,99.99
2022-10-22T05:49:57.792Z,99.99
2022-10-22T05:50:57.784Z,99.99
2022-10-22T05:51:57.766Z,99.99
2022-10-22T05:52:57.775Z,99.99
2022-10-22T05:53:57.745Z,99.99
2022-10-22T05:54:58.717Z,99.99
2022-10-22T05:55:57.725Z,99.99
2022-10-22T05:56:57.730Z,99.99
2022-10-22T05:57:57.700Z,99.99
2022-10-22T05:58:57.753Z,99.99
2022-10-22T05:59:57.680Z,99.99
2022-10-22T06:00:57.671Z,99.99
2022-10-22T06:01:57.695Z,99.99
2022-10-22T06:02:57.650Z,99.99
2022-10-22T06:03:57.730Z,99.99
2022-10-22T06:04:57.629Z,99.99
2022-10-22T06:05:57.612Z,99.99
2022-10-22T06:06:57.617Z,99.99
2022-10-22T06:07:57.592Z,99.99
2022-10-22T06:08:57.623Z,99.99
2022-10-22T06:09:57.573Z,99.99
2022-10-22T06:10:57.563Z,99.99
2022-10-22T06:11:57.559Z,99.99
2022-10-22T06:12:57.539Z,99.99
2022-10-22T06:13:57.525Z,99.99
2022-10-22T06:14:57.521Z,99.99
2022-10-22T06:15:57.500Z,99.99
2022-10-22T06:16:57.507Z,99.99
2022-10-22T06:17:57.480Z,99.99
2022-10-22T06:18:57.485Z,99.99
2022-10-22T06:19:57.480Z,99.99
2022-10-22T06:20:57.454Z,99.99
2022-10-22T06:21:57.447Z,99.99
2022-10-22T06:22:57.432Z,99.99
2022-10-22T06:23:57.418Z,99.99
2022-10-22T06:24:57.446Z,99.99
2022-10-22T06:25:57.393Z,99.99
2022-10-22T06:26:57.403Z,99.99
2022-10-22T06:27:57.370Z,99.99
2022-10-22T06:28:57.367Z,99.99
2022-10-22T06:29:57.348Z,99.99
2022-10-22T06:30:57.345Z,99.99
2022-10-22T06:31:57.340Z,99.99
2022-10-22T06:32:57.319Z,99.99
2022-10-22T06:33:57.325Z,99.99
2022-10-22T06:34:57.324Z,99.99
2022-10-22T06:35:57.282Z,99.99
2022-10-22T06:36:57.321Z,99.99
2022-10-22T06:37:57.260Z,99.99
2022-10-22T06:38:57.255Z,99.99
2022-10-22T06:39:57.252Z,99.99
2022-10-22T06:40:57.234Z,99.99
2022-10-22T06:41:57.232Z,99.99
2022-10-22T06:42:57.212Z,99.99
2022-10-22T06:43:57.196Z,99.99
2022-10-22T06:44:57.219Z,99.99
2022-10-22T06:45:57.174Z,99.99
2022-10-22T06:46:57.182Z,99.99
2022-10-22T06:47:57.153Z,99.99
2022-10-22T06:48:57.159Z,99.99
2022-10-22T06:49:57.153Z,99.99
2022-10-22T06:50:57.125Z,99.99
2022-10-22T06:51:57.128Z,99.99
2022-10-22T06:52:57.102Z,99.99
2022-10-22T06:53:57.103Z,99.99
2022-10-22T06:54:57.080Z,99.99
2022-10-22T06:55:57.070Z,99.99
2022-10-22T06:56:57.073Z,99.99
2022-10-22T06:57:57.044Z,99.99
2022-10-22T06:58:57.046Z,99.99
2022-10-22T06:59:57.026Z,99.99
2022-10-22T07:00:57.051Z,99.99
2022-10-22T07:01:57.020Z,99.99
2022-10-22T07:02:59.176Z,99.99
2022-10-22T07:03:56.984Z,99.99
2022-10-22T07:04:56.973Z,99.99
2022-10-22T07:05:57.000Z,99.99
2022-10-22T07:06:56.988Z,99.99
2022-10-22T07:07:56.975Z,99.99
2022-10-22T07:08:57.281Z,99.99
2022-10-22T07:09:56.917Z,99.99
2022-10-22T07:10:56.911Z,99.99
2022-10-22T07:11:56.910Z,99.99
2022-10-22T07:12:56.888Z,99.99
2022-10-22T07:13:56.875Z,99.99
2022-10-22T07:14:56.867Z,99.99
2022-10-22T07:15:56.890Z,99.99
2022-10-22T07:16:56.907Z,99.99
2022-10-22T07:17:56.850Z,99.99
2022-10-22T07:18:56.893Z,99.99
2022-10-22T07:19:56.808Z,99.99
2022-10-22T07:20:56.799Z,99.99
2022-10-22T07:21:56.797Z,99.99
2022-10-22T07:22:56.783Z,99.99
2022-10-22T07:23:56.763Z,99.99
2022-10-22T07:24:56.757Z,99.99
2022-10-22T07:26:56.755Z,99.99
2022-10-22T07:27:56.722Z,99.99
2022-10-22T07:28:56.816Z,99.99
2022-10-22T07:29:56.698Z,99.99
2022-10-22T07:30:56.702Z,99.99
2022-10-22T07:31:56.727Z,99.99
2022-10-22T07:32:56.686Z,99.99
2022-10-22T07:33:56.660Z,99.99
2022-10-22T07:34:56.649Z,99.99
2022-10-22T07:35:56.634Z,99.99
2022-10-22T07:36:56.644Z,99.99
2022-10-22T07:37:56.618Z,99.99
2022-10-22T07:38:56.708Z,99.99
2022-10-22T07:40:01.334Z,99.99
2022-10-22T07:40:56.598Z,99.99
2022-10-22T07:41:56.598Z,99.99
2022-10-22T07:42:56.575Z,99.99
2022-10-22T07:43:56.555Z,99.99
2022-10-22T07:44:56.538Z,99.99
2022-10-22T07:45:56.533Z,99.99
2022-10-22T07:46:56.518Z,99.99
2022-10-22T07:47:56.525Z,99.99
2022-10-22T07:48:56.607Z,99.99
2022-10-22T07:49:56.503Z,99.99
2022-10-22T07:50:56.476Z,99.99
2022-10-22T07:51:56.470Z,99.99
2022-10-22T07:52:58.211Z,99.99
2022-10-22T07:53:56.532Z,99.99
2022-10-22T07:54:56.433Z,99.99
2022-10-22T07:55:56.427Z,99.99
2022-10-22T07:56:56.408Z,99.99
2022-10-22T07:57:56.414Z,99.99
2022-10-22T07:58:56.427Z,99.99
2022-10-22T07:59:56.381Z,99.99
2022-10-22T08:00:56.365Z,99.99
2022-10-22T08:01:56.363Z,99.99
2022-10-22T08:02:56.357Z,99.99
2022-10-22T08:03:56.390Z,99.99
2022-10-22T08:04:56.324Z,99.99
2022-10-22T08:05:56.322Z,99.99
2022-10-22T08:06:56.308Z,99.99
2022-10-22T08:07:56.311Z,99.99
2022-10-22T08:08:56.379Z,99.99
2022-10-22T08:09:56.272Z,99.99
2022-10-22T08:10:56.258Z,99.99
2022-10-22T08:11:56.255Z,99.99
2022-10-22T08:12:56.253Z,99.99
2022-10-22T08:13:56.323Z,99.99
2022-10-22T08:14:56.217Z,99.99
2022-10-22T08:15:57.606Z,99.99
2022-10-22T08:16:56.215Z,99.99
2022-10-22T08:17:56.202Z,99.99
2022-10-22T08:18:56.209Z,99.99
2022-10-22T08:19:56.168Z,98.71
2022-10-22T08:20:56.150Z,99.47
2022-10-22T08:21:56.144Z,98.11
2022-10-22T08:22:56.132Z,96.49
2022-10-22T08:23:56.235Z,95.68
2022-10-22T08:24:56.114Z,96.49
2022-10-22T08:25:56.106Z,95.38
2022-10-22T08:26:56.087Z,96.19
2022-10-22T08:27:56.079Z,97.16
2022-10-22T08:28:56.082Z,95.28
2022-10-22T08:29:56.054Z,95.28
2022-10-22T08:30:56.042Z,97.60
2022-10-22T08:31:56.042Z,97.60
2022-10-22T08:32:56.032Z,95.73
2022-10-22T08:33:56.019Z,95.83
2022-10-22T08:34:56.000Z,96.39
2022-10-22T08:35:55.993Z,95.63
2022-10-22T08:36:55.977Z,96.69
2022-10-22T08:37:55.988Z,96.19
2022-10-22T08:38:55.953Z,96.09
2022-10-22T08:39:55.948Z,95.78
2022-10-22T08:40:55.934Z,95.98
2022-10-22T08:41:55.926Z,97.10
2022-10-22T08:42:55.925Z,94.73
2022-10-22T08:43:55.909Z,94.73
2022-10-22T08:44:55.892Z,94.08
2022-10-22T08:45:55.893Z,92.32
2022-10-22T08:46:55.868Z,90.16
2022-10-22T08:47:55.918Z,89.65
2022-10-22T08:48:55.932Z,88.46
2022-10-22T08:49:55.841Z,88.96
2022-10-22T08:50:55.826Z,87.49
2022-10-22T08:51:55.831Z,89.15
2022-10-22T08:52:55.830Z,90.46
2022-10-22T08:53:55.794Z,88.79
2022-10-22T08:54:55.779Z,88.68
2022-10-22T08:55:55.775Z,87.51
2022-10-22T08:56:55.760Z,84.27
2022-10-22T08:57:55.751Z,82.18
2022-10-22T08:58:55.748Z,78.66
2022-10-22T08:59:55.729Z,77.31
2022-10-22T09:00:55.712Z,77.14
2022-10-22T09:01:55.707Z,73.36
2022-10-22T09:02:55.690Z,74.03
2022-10-22T09:03:55.698Z,73.06
2022-10-22T09:04:55.671Z,73.46
2022-10-22T09:05:55.705Z,71.86
2022-10-22T09:06:55.648Z,70.83
2022-10-22T09:07:55.642Z,71.69
2022-10-22T09:08:55.714Z,72.89
2022-10-22T09:09:55.621Z,71.86
2022-10-22T09:10:55.603Z,73.70
2022-10-22T09:11:55.614Z,71.46
2022-10-22T09:12:55.584Z,72.69
2022-10-22T09:13:55.592Z,72.33
2022-10-22T09:14:55.563Z,70.89
2022-10-22T09:15:55.557Z,70.36
2022-10-22T09:16:55.543Z,69.23
2022-10-22T09:17:55.537Z,68.79
2022-10-22T09:18:55.533Z,70.16
2022-10-22T09:19:55.526Z,70.69
2022-10-22T09:20:55.497Z,73.36
2022-10-22T09:21:55.499Z,72.36
2022-10-22T09:22:55.485Z,71.89
2022-10-22T09:23:55.485Z,73.57
2022-10-22T09:24:55.459Z,75.75
2022-10-22T09:25:55.458Z,77.33
2022-10-22T09:26:55.434Z,77.83
2022-10-22T09:27:55.431Z,81.46
2022-10-22T09:28:55.429Z,80.08
2022-10-22T09:29:55.411Z,80.52
2022-10-22T09:30:55.539Z,80.79
2022-10-22T09:31:55.388Z,79.35
2022-10-22T09:32:55.373Z,78.61
2022-10-22T09:33:55.379Z,80.66
2022-10-22T09:34:55.354Z,81.53
2022-10-22T09:35:55.350Z,80.46
2022-10-22T09:36:55.342Z,80.87
2022-10-22T09:37:55.331Z,83.36
2022-10-22T09:38:55.323Z,83.60
2022-10-22T09:39:55.307Z,83.44
2022-10-22T09:40:55.298Z,84.65
2022-10-22T09:41:55.291Z,84.61
2022-10-22T09:42:55.274Z,82.90
2022-10-22T09:43:55.277Z,83.46
2022-10-22T09:44:55.250Z,84.97
2022-10-22T09:45:55.242Z,83.36
2022-10-22T09:46:55.227Z,84.88
2022-10-22T09:48:01.813Z,83.70
2022-10-22T09:48:55.233Z,84.01
2022-10-22T09:49:55.199Z,85.92
2022-10-22T09:50:55.185Z,84.71
2022-10-22T09:51:55.179Z,83.97
2022-10-22T09:52:55.165Z,82.79
2022-10-22T09:53:55.232Z,83.10
2022-10-22T09:54:55.140Z,83.10
2022-10-22T09:56:55.119Z,79.57
2022-10-22T09:57:55.120Z,77.22
2022-10-22T09:58:55.099Z,75.63
2022-10-22T09:59:55.108Z,72.60
2022-10-22T10:00:55.080Z,75.71
2022-10-22T10:01:55.076Z,78.30
2022-10-22T10:02:55.098Z,77.29
2022-10-22T10:03:55.071Z,78.54
2022-10-22T10:04:55.438Z,78.91
2022-10-22T10:05:55.029Z,80.97
2022-10-22T10:06:55.014Z,80.50
2022-10-22T10:07:55.008Z,80.54
2022-10-22T10:08:55.018Z,83.46
2022-10-22T10:09:55.003Z,83.36
2022-10-22T10:10:54.979Z,84.17
2022-10-22T10:11:54.967Z,82.09
2022-10-22T10:12:54.951Z,83.20
2022-10-22T10:13:55.084Z,82.53
2022-10-22T10:14:54.944Z,83.54
2022-10-22T10:15:54.930Z,85.76
2022-10-22T10:16:54.907Z,84.75
2022-10-22T10:17:54.910Z,84.79
2022-10-22T10:18:54.889Z,85.70
2022-10-22T10:19:55.709Z,85.50
2022-10-22T10:20:54.867Z,86.41
2022-10-22T10:21:54.874Z,86.61
2022-10-22T10:22:54.851Z,87.21
2022-10-22T10:23:54.843Z,85.24
2022-10-22T10:24:54.837Z,86.15
2022-10-22T10:25:54.817Z,86.79
2022-10-22T10:26:54.803Z,87.60
2022-10-22T10:27:54.797Z,88.10
2022-10-22T10:28:54.780Z,88.92
2022-10-22T10:29:54.795Z,88.85
2022-10-22T10:30:54.761Z,88.35
2022-10-22T10:31:54.761Z,89.56
2022-10-22T10:32:54.741Z,90.67
2022-10-22T10:33:54.809Z,90.37
2022-10-22T10:34:54.723Z,89.87
2022-10-22T10:35:54.729Z,90.31
2022-10-22T10:36:54.697Z,90.72
2022-10-22T10:37:54.735Z,91.32
2022-10-22T10:38:54.681Z,91.22
2022-10-22T10:39:54.667Z,91.32
2022-10-22T10:40:54.670Z,92.24
2022-10-22T10:41:54.647Z,91.32
2022-10-22T10:42:54.635Z,91.42
2022-10-22T10:43:54.625Z,91.42
2022-10-22T10:44:54.610Z,91.78
2022-10-22T10:45:55.784Z,90.27
2022-10-22T10:46:54.593Z,91.34
2022-10-22T10:47:54.585Z,88.77
2022-10-22T10:48:54.570Z,87.12
2022-10-22T10:49:54.559Z,87.18
2022-10-22T10:50:54.629Z,85.92
2022-10-22T10:51:54.541Z,84.01
2022-10-22T10:52:54.527Z,83.26
2022-10-22T10:53:54.529Z,82.82
2022-10-22T10:54:54.508Z,81.56
2022-10-22T10:55:54.517Z,75.64
2022-10-22T10:56:54.485Z,76.32
2022-10-22T10:57:54.479Z,77.56
2022-10-22T10:58:54.462Z,76.42
2022-10-22T10:59:54.456Z,75.99
2022-10-22T11:00:54.458Z,76.53
2022-10-22T11:01:54.545Z,78.94
2022-10-22T11:02:54.431Z,78.47
2022-10-22T11:03:54.418Z,79.62
2022-10-22T11:04:54.400Z,79.86
2022-10-22T11:05:54.409Z,80.26
2022-10-22T11:06:56.340Z,80.36
2022-10-22T11:07:56.048Z,79.79
2022-10-22T11:08:54.395Z,76.05
2022-10-22T11:09:54.357Z,78.40
2022-10-22T11:10:54.350Z,78.94
2022-10-22T11:11:54.333Z,79.32
2022-10-22T11:12:54.317Z,80.10
2022-10-22T11:13:54.307Z,84.03
2022-10-22T11:14:54.296Z,83.06
2022-10-22T11:15:54.306Z,81.99
2022-10-22T11:16:54.280Z,83.40
2022-10-22T11:17:54.266Z,83.74
2022-10-22T11:18:54.254Z,82.57
2022-10-22T11:19:59.152Z,83.28
2022-10-22T11:20:54.259Z,84.59
2022-10-22T11:21:54.229Z,85.80
2022-10-22T11:23:17.572Z,85.34
2022-10-22T11:23:54.212Z,85.70
2022-10-22T11:24:54.191Z,85.90
2022-10-22T11:25:54.194Z,85.54
2022-10-22T11:26:54.168Z,87.66
2022-10-22T11:27:54.206Z,87.66
2022-10-22T11:28:54.148Z,86.25
2022-10-22T11:29:54.142Z,88.17
2022-10-22T11:30:54.155Z,85.64
2022-10-22T11:31:54.123Z,87.46
2022-10-22T11:32:54.105Z,86.39
2022-10-22T11:34:00.523Z,86.39
2022-10-22T11:34:54.092Z,85.78
2022-10-22T11:35:54.076Z,85.38
2022-10-22T11:36:54.075Z,86.39
2022-10-22T11:37:54.056Z,85.48
2022-10-22T11:38:54.042Z,86.39
2022-10-22T11:39:54.036Z,86.29
2022-10-22T11:40:54.019Z,86.19
2022-10-22T11:41:54.023Z,88.10
2022-10-22T11:42:54.004Z,88.41
2022-10-22T11:43:53.993Z,86.73
2022-10-22T11:44:53.990Z,86.53
2022-10-22T11:45:53.982Z,87.54
2022-10-22T11:46:53.972Z,86.63
2022-10-22T11:47:53.956Z,86.49
2022-10-22T11:48:53.934Z,88.41
2022-10-22T11:49:53.932Z,86.49
2022-10-22T11:50:53.915Z,87.90
2022-10-22T11:51:53.932Z,88.41
2022-10-22T11:52:53.907Z,86.90
2022-10-22T11:53:53.884Z,87.19
2022-10-22T11:54:53.873Z,85.99
2022-10-22T11:55:53.857Z,85.58
2022-10-22T11:56:53.871Z,85.99
2022-10-22T11:57:53.850Z,86.39
2022-10-22T11:58:54.798Z,84.17
2022-10-22T11:59:53.818Z,86.69
2022-10-22T12:00:53.870Z,84.17
2022-10-22T12:01:53.807Z,84.67
2022-10-22T12:02:53.803Z,84.97
2022-10-22T12:03:53.786Z,84.43
2022-10-22T12:04:53.868Z,84.53
2022-10-22T12:05:53.755Z,85.03
2022-10-22T12:06:53.758Z,84.63
2022-10-22T12:07:53.735Z,82.91
2022-10-22T12:08:53.762Z,83.12
2022-10-22T12:09:53.729Z,82.67
2022-10-22T12:10:53.704Z,82.17
2022-10-22T12:11:53.702Z,82.47
2022-10-22T12:12:53.681Z,81.05
2022-10-22T12:13:53.670Z,81.42
2022-10-22T12:14:53.664Z,82.03
2022-10-22T12:15:53.648Z,82.03
2022-10-22T12:16:56.512Z,79.97
2022-10-22T12:17:53.628Z,80.33
2022-10-22T12:18:53.618Z,80.24
2022-10-22T12:19:54.226Z,81.71
2022-10-22T12:20:53.594Z,79.23
2022-10-22T12:21:53.587Z,78.72
2022-10-22T12:22:53.588Z,79.33
2022-10-22T12:23:53.560Z,80.24
2022-10-22T12:24:53.555Z,80.74
2022-10-22T12:25:53.538Z,82.15
2022-10-22T12:26:53.533Z,79.93
2022-10-22T12:27:53.537Z,78.96
2022-10-22T12:28:53.515Z,79.06
2022-10-22T12:29:53.500Z,79.81
2022-10-22T12:30:53.492Z,80.18
2022-10-22T12:31:53.478Z,78.36
2022-10-22T12:32:53.481Z,77.75
2022-10-22T12:33:53.462Z,77.86
2022-10-22T12:34:53.461Z,79.47
2022-10-22T12:35:53.434Z,78.16
2022-10-22T12:36:53.433Z,79.67
2022-10-22T12:37:53.429Z,79.06
2022-10-22T12:38:53.408Z,79.06
2022-10-22T12:39:53.391Z,78.06
2022-10-22T12:40:53.386Z,78.30
2022-10-22T12:41:53.370Z,77.69
2022-10-22T12:42:53.388Z,78.09
2022-10-22T12:43:53.349Z,76.98
2022-10-22T12:44:53.342Z,77.49
2022-10-22T12:45:53.334Z,78.39
2022-10-22T12:46:56.136Z,81.22
2022-10-22T12:47:53.308Z,77.99
2022-10-22T12:48:53.310Z,80.51
2022-10-22T12:49:53.287Z,78.13
2022-10-22T12:50:53.277Z,78.03
2022-10-22T12:51:53.277Z,78.74
2022-10-22T12:52:53.259Z,78.03
2022-10-22T12:53:53.256Z,77.62
2022-10-22T12:54:53.237Z,78.84
2022-10-22T12:55:53.227Z,80.76
2022-10-22T12:56:53.229Z,77.22
2022-10-22T12:57:53.202Z,76.72
2022-10-22T12:58:53.197Z,78.19
2022-10-22T12:59:53.263Z,77.62
2022-10-22T13:00:53.241Z,79.71
2022-10-22T13:01:53.183Z,78.19
2022-10-22T13:02:53.155Z,79.41
2022-10-22T13:03:53.139Z,78.09
2022-10-22T13:04:53.133Z,79.04
2022-10-22T13:05:53.115Z,78.43
2022-10-22T13:06:53.110Z,78.23
2022-10-22T13:07:53.114Z,80.76
2022-10-22T13:08:53.148Z,81.05
2022-10-22T13:09:53.075Z,79.64
2022-10-22T13:10:53.087Z,80.76
2022-10-22T13:11:53.066Z,78.03
2022-10-22T13:12:53.048Z,78.39
2022-10-22T13:13:53.032Z,77.99
2022-10-22T13:14:53.025Z,78.59
2022-10-22T13:15:53.009Z,77.99
2022-10-22T13:16:53.020Z,77.66
2022-10-22T13:17:53.000Z,78.36
2022-10-22T13:18:52.987Z,79.16
2022-10-22T13:19:52.972Z,78.96
2022-10-22T13:20:52.965Z,79.27
2022-10-22T13:21:52.978Z,80.38
2022-10-22T13:22:52.946Z,81.02
2022-10-22T13:23:52.929Z,80.51
2022-10-22T13:24:53.010Z,79.64
2022-10-22T13:25:53.110Z,81.46
2022-10-22T13:26:52.913Z,81.96
2022-10-22T13:27:52.884Z,81.26
2022-10-22T13:28:52.880Z,80.25
2022-10-22T13:29:52.890Z,80.45
2022-10-22T13:30:52.860Z,81.56
2022-10-22T13:31:52.883Z,82.07
2022-10-22T13:32:52.837Z,81.56
2022-10-22T13:33:52.829Z,81.26
2022-10-22T13:34:53.111Z,80.35
2022-10-22T13:35:52.806Z,81.26
2022-10-22T13:36:52.801Z,80.76
2022-10-22T13:37:52.800Z,82.07
2022-10-22T13:38:52.773Z,81.16
2022-10-22T13:39:52.768Z,83.32
2022-10-22T13:40:52.758Z,81.10
2022-10-22T13:41:52.739Z,82.51
2022-10-22T13:42:52.751Z,82.51
2022-10-22T13:43:52.719Z,82.01
2022-10-22T13:44:52.750Z,81.70
2022-10-22T13:45:52.708Z,82.51
2022-10-22T13:46:52.688Z,81.40
2022-10-22T13:47:52.694Z,83.32
2022-10-22T13:48:52.669Z,83.62
2022-10-22T13:49:52.741Z,83.82
2022-10-22T13:50:52.650Z,82.31
2022-10-22T13:51:52.639Z,82.91
2022-10-22T13:52:52.651Z,84.63
2022-10-22T13:53:52.616Z,83.72
2022-10-22T13:54:52.634Z,81.80
2022-10-22T13:55:52.590Z,81.50
2022-10-22T13:56:53.266Z,83.82
2022-10-22T13:57:52.592Z,81.10
2022-10-22T13:58:52.565Z,81.13
2022-10-22T13:59:52.553Z,81.50
2022-10-22T14:00:52.661Z,83.32
2022-10-22T14:01:52.548Z,80.69
2022-10-22T14:02:52.547Z,80.79
2022-10-22T14:03:52.514Z,80.90
2022-10-22T14:04:52.505Z,80.79
2022-10-22T14:05:52.486Z,83.01
2022-10-22T14:06:52.489Z,83.22
2022-10-22T14:07:52.465Z,81.50
2022-10-22T14:08:52.514Z,83.32
2022-10-22T14:09:52.444Z,84.03
2022-10-22T14:10:52.522Z,81.90
2022-10-22T14:11:52.430Z,81.40
2022-10-22T14:12:53.406Z,84.23
2022-10-22T14:13:52.423Z,81.50
2022-10-22T14:14:52.441Z,81.40
2022-10-22T14:15:52.384Z,83.42
2022-10-22T14:16:52.375Z,81.80
2022-10-22T14:17:52.372Z,81.90
2022-10-22T14:18:52.352Z,81.20
2022-10-22T14:19:52.334Z,81.64
2022-10-22T14:20:52.375Z,81.64
2022-10-22T14:21:52.331Z,81.44
2022-10-22T14:22:52.326Z,81.64
2022-10-22T14:23:52.295Z,80.73
2022-10-22T14:24:52.287Z,82.45
2022-10-22T14:25:52.293Z,80.83
2022-10-22T14:26:52.271Z,82.24
2022-10-22T14:27:52.263Z,81.94
2022-10-22T14:29:54.043Z,82.49
2022-10-22T14:30:52.264Z,81.17
2022-10-22T14:31:52.209Z,82.08
2022-10-22T14:32:52.222Z,82.79
2022-10-22T14:33:52.186Z,83.09
2022-10-22T14:34:52.180Z,82.28
2022-10-22T14:35:52.166Z,82.99
2022-10-22T14:36:52.158Z,83.19
2022-10-22T14:37:52.144Z,83.40
2022-10-22T14:38:52.152Z,83.19
2022-10-22T14:39:52.244Z,85.02
2022-10-22T14:40:52.151Z,83.74
2022-10-22T14:41:52.103Z,84.11
2022-10-22T14:42:52.114Z,83.80
2022-10-22T14:43:52.094Z,83.70
2022-10-22T14:44:52.109Z,84.31
2022-10-22T14:45:52.066Z,83.50
2022-10-22T14:46:52.067Z,83.40
2022-10-22T14:47:52.042Z,83.60
2022-10-22T14:48:52.055Z,83.70
2022-10-22T14:49:52.021Z,83.40
2022-10-22T14:50:52.089Z,83.19
2022-10-22T14:51:51.998Z,82.59
2022-10-22T14:52:52.008Z,82.49
2022-10-22T14:53:51.977Z,83.80
2022-10-22T14:54:51.976Z,83.70
2022-10-22T14:55:51.958Z,83.29
2022-10-22T14:56:51.952Z,82.49
2022-10-22T14:57:51.962Z,84.11
2022-10-22T14:58:51.937Z,84.11
2022-10-22T14:59:51.924Z,82.69
2022-10-22T15:00:52.061Z,82.18
2022-10-22T15:01:51.890Z,84.81
2022-10-22T15:02:51.883Z,83.60
2022-10-22T15:03:51.891Z,83.50
2022-10-22T15:04:51.886Z,85.02
2022-10-22T15:05:51.859Z,83.09
2022-10-22T15:06:51.854Z,83.09
2022-10-22T15:07:51.847Z,82.39
2022-10-22T15:08:51.929Z,83.40
2022-10-22T15:09:51.818Z,82.49
2022-10-22T15:10:51.813Z,83.19
2022-10-22T15:11:51.785Z,83.29
2022-10-22T15:12:51.788Z,84.61
2022-10-22T15:13:51.774Z,83.40
2022-10-22T15:14:51.779Z,83.90
2022-10-22T15:15:51.746Z,84.11
2022-10-22T15:16:51.741Z,84.75
2022-10-22T15:17:51.735Z,85.36
2022-10-22T15:18:51.719Z,84.75
2022-10-22T15:19:51.707Z,86.37
2022-10-22T15:20:51.719Z,86.07
2022-10-22T15:21:51.688Z,84.45
2022-10-22T15:22:51.686Z,85.46
2022-10-22T15:23:51.659Z,83.74
2022-10-22T15:24:51.668Z,83.84
2022-10-22T15:25:51.644Z,83.54
2022-10-22T15:26:51.640Z,85.46
2022-10-22T15:27:52.558Z,84.95
2022-10-22T15:28:51.610Z,84.25
2022-10-22T15:29:51.652Z,85.76
2022-10-22T15:30:51.589Z,85.50
2022-10-22T15:31:51.589Z,85.30
2022-10-22T15:32:51.580Z,85.30
2022-10-22T15:33:51.565Z,84.99
2022-10-22T15:34:51.543Z,83.37
2022-10-22T15:35:51.537Z,84.08
2022-10-22T15:36:51.522Z,84.08
2022-10-22T15:37:51.510Z,84.28
2022-10-22T15:38:51.525Z,83.78
2022-10-22T15:39:51.489Z,83.47
2022-10-22T15:40:51.488Z,83.17
2022-10-22T15:41:51.478Z,83.37
2022-10-22T15:42:51.461Z,83.27
2022-10-22T15:43:51.468Z,85.10
2022-10-22T15:44:51.444Z,83.27
2022-10-22T15:45:51.432Z,84.59
2022-10-22T15:46:51.443Z,83.07
2022-10-22T15:47:51.399Z,84.99
2022-10-22T15:48:51.413Z,85.13
2022-10-22T15:49:51.375Z,84.53
2022-10-22T15:50:51.380Z,84.93
2022-10-22T15:51:51.358Z,84.87
2022-10-22T15:52:51.353Z,85.17
2022-10-22T15:53:51.384Z,85.99
2022-10-22T15:54:51.329Z,85.38
2022-10-22T15:55:51.313Z,86.08
2022-10-22T15:56:51.325Z,86.94
2022-10-22T15:57:51.303Z,86.13
2022-10-22T15:58:51.308Z,87.45
2022-10-22T15:59:51.270Z,87.28
2022-10-22T16:00:51.280Z,88.09
2022-10-22T16:01:51.246Z,86.88
2022-10-22T16:02:51.240Z,87.08
2022-10-22T16:03:51.254Z,88.03
2022-10-22T16:04:51.224Z,87.83
2022-10-22T16:05:51.221Z,87.43
2022-10-22T16:06:51.197Z,88.23
2022-10-22T16:07:51.188Z,87.73
2022-10-22T16:08:51.260Z,88.64
2022-10-22T16:09:51.175Z,89.09
2022-10-22T16:10:51.155Z,88.68
2022-10-22T16:11:51.147Z,89.29
2022-10-22T16:12:51.136Z,89.59
2022-10-22T16:13:51.137Z,89.29
2022-10-22T16:14:51.115Z,89.84
2022-10-22T16:15:51.106Z,90.45
2022-10-22T16:16:51.096Z,90.66
2022-10-22T16:17:51.090Z,91.00
2022-10-22T16:18:51.090Z,91.51
2022-10-22T16:19:51.063Z,91.20
2022-10-22T16:20:51.051Z,91.30
2022-10-22T16:21:51.100Z,90.59
2022-10-22T16:22:51.018Z,89.88
2022-10-22T16:23:51.033Z,90.14
2022-10-22T16:24:50.997Z,91.00
2022-10-22T16:25:50.996Z,90.80
2022-10-22T16:26:51.015Z,90.70
2022-10-22T16:27:50.969Z,91.14
2022-10-22T16:28:50.979Z,91.65
2022-10-22T16:29:50.969Z,91.55
2022-10-22T16:30:50.933Z,91.55
2022-10-22T16:31:50.924Z,91.96
2022-10-22T16:32:50.918Z,92.30
2022-10-22T16:33:50.907Z,92.51
2022-10-22T16:34:50.915Z,93.12
2022-10-22T16:35:50.881Z,92.61
2022-10-22T16:37:50.890Z,93.26
2022-10-22T16:38:50.854Z,93.57
2022-10-22T16:39:50.879Z,93.57
2022-10-22T16:40:50.818Z,93.98
2022-10-22T16:41:50.830Z,93.87
2022-10-22T16:42:50.811Z,94.28
2022-10-22T16:43:50.798Z,94.23
2022-10-22T16:44:50.790Z,94.63
2022-10-22T16:45:50.785Z,94.73
2022-10-22T16:46:50.763Z,94.93
2022-10-22T16:47:50.768Z,95.49
2022-10-22T16:48:50.775Z,96.10
2022-10-22T16:49:50.751Z,96.10
2022-10-22T16:50:50.775Z,96.20
2022-10-22T16:51:50.708Z,95.79
2022-10-22T16:52:50.708Z,95.84
2022-10-22T16:53:50.686Z,96.35
2022-10-22T16:54:50.690Z,96.66
2022-10-22T16:55:50.664Z,97.06
2022-10-22T16:56:50.655Z,96.96
2022-10-22T16:57:50.659Z,97.31
2022-10-22T16:58:50.637Z,97.52
2022-10-22T16:59:50.633Z,97.72
2022-10-22T17:00:50.658Z,97.72
2022-10-22T17:01:50.681Z,98.07
2022-10-22T17:02:50.613Z,98.58
2022-10-22T17:03:50.584Z,98.79
2022-10-22T17:04:50.581Z,99.09
2022-10-22T17:05:50.594Z,99.14
2022-10-22T17:06:50.540Z,99.24
2022-10-22T17:07:50.571Z,99.44
2022-10-22T17:08:50.567Z,99.65
2022-10-22T17:09:50.539Z,99.85
2022-10-22T17:10:50.504Z,99.75
2022-10-22T17:11:50.499Z,99.99
2022-10-22T17:12:50.487Z,99.99
2022-10-22T17:13:50.481Z,99.99
2022-10-22T17:14:50.474Z,99.99
2022-10-22T17:15:50.449Z,99.99
2022-10-22T17:16:50.458Z,99.99
2022-10-22T17:17:50.439Z,99.99
2022-10-22T17:18:50.424Z,99.99
2022-10-22T17:19:50.420Z,99.99
2022-10-22T17:20:50.393Z,99.99
2022-10-22T17:21:50.395Z,99.99
2022-10-22T17:22:50.383Z,99.99
2022-10-22T17:23:50.381Z,99.99
2022-10-22T17:24:50.365Z,99.99
2022-10-22T17:25:50.356Z,99.99
2022-10-22T17:26:50.331Z,99.99
2022-10-22T17:27:50.325Z,99.99
2022-10-22T17:28:50.320Z,99.99
2022-10-22T17:29:50.325Z,99.99
2022-10-22T17:30:50.286Z,99.99
2022-10-22T17:31:50.280Z,99.99
2022-10-22T17:32:50.258Z,99.99
2022-10-22T17:33:50.258Z,99.99
2022-10-22T17:34:50.271Z,99.99
2022-10-22T17:35:50.242Z,99.99
2022-10-22T17:36:50.220Z,99.99
2022-10-22T17:37:50.218Z,99.99
2022-10-22T17:38:50.220Z,99.99
2022-10-22T17:39:50.220Z,99.99
2022-10-22T17:40:50.210Z,99.99
2022-10-22T17:41:50.170Z,99.99
2022-10-22T17:42:50.153Z,99.99